^^
Station Historical Data
 
Daily Summary for October 02, 2014 Units:  English    Metric   Both
« Previous Day
Next Day »
Daily Weekly Monthly Yearly Custom
  Current: High: Low: Average:
Temperature: 69.4 °F 69.4 °F 64.1 °F 66 °F
Dew Point: 65.0 °F 65.0 °F 56.5 °F 60.8 °F
Humidity: 86% 90% 71% 84%
Wind Speed: 1.0mph 3.0mph 1.0mph 1.2mph
Wind Gust: 3.0mph 8.0mph - -
WindNorth - - SW
Pressure: 29.82 in 29.86 in 29.82 in -
Precipitation: 0.00 in      
Historical Graphs
 
 
Tabular Data for October 02, 2014
Time Temperature Dew Point Pressure Wind Wind Speed Wind Gust Humidity Rainfall Rate (Hourly)
00:09 66.2 °F 56.5 °F 29.85 in NNE 1.0 mph 4.0 mph 71% 0.00 in
00:19 66.2 °F 56.9 °F 29.86 in NNW 2.0 mph 4.0 mph 72% 0.00 in
00:29 66.2 °F 56.9 °F 29.86 in NNW 1.0 mph 4.0 mph 72% 0.00 in
00:39 66.2 °F 57.3 °F 29.86 in NW 1.0 mph 5.0 mph 73% 0.00 in
00:49 66.1 °F 57.2 °F 29.86 in NW 1.0 mph 3.0 mph 73% 0.00 in
00:59 66.3 °F 57.4 °F 29.86 in NW 1.0 mph 3.0 mph 73% 0.00 in
01:09 66.2 °F 57.3 °F 29.85 in NNW 1.0 mph 3.0 mph 73% 0.00 in
01:19 66.2 °F 57.7 °F 29.86 in NNE 1.0 mph 4.0 mph 74% 0.00 in
01:29 66.2 °F 57.7 °F 29.86 in NNE 1.0 mph 3.0 mph 74% 0.00 in
01:39 66.2 °F 58.0 °F 29.86 in North 1.0 mph 3.0 mph 75% 0.00 in
01:49 66.0 °F 57.9 °F 29.86 in North 1.0 mph 3.0 mph 75% 0.00 in
01:59 65.9 °F 58.1 °F 29.86 in NNW 1.0 mph 4.0 mph 76% 0.00 in
02:09 65.8 °F 58.4 °F 29.86 in North 1.0 mph 3.0 mph 77% 0.00 in
02:19 65.8 °F 58.7 °F 29.85 in NW 1.0 mph 2.0 mph 78% 0.00 in
02:29 65.6 °F 58.9 °F 29.85 in North 2.0 mph 4.0 mph 79% 0.00 in
02:39 65.5 °F 59.2 °F 29.85 in NNW 2.0 mph 4.0 mph 80% 0.00 in
02:49 65.5 °F 59.1 °F 29.85 in North 1.0 mph 4.0 mph 80% 0.00 in
02:59 65.4 °F 59.4 °F 29.85 in NNW 2.0 mph 4.0 mph 81% 0.00 in
03:09 65.3 °F 59.3 °F 29.84 in NW 1.0 mph 5.0 mph 81% 0.00 in
03:19 65.3 °F 59.4 °F 29.84 in NW 1.0 mph 3.0 mph 81% 0.00 in
03:29 65.3 °F 59.3 °F 29.84 in Calm   3.0 mph 81% 0.00 in
03:39 65.2 °F 59.2 °F 29.84 in NNE 1.0 mph 2.0 mph 81% 0.00 in
03:49 65.1 °F 59.5 °F 29.85 in North 1.0 mph 2.0 mph 82% 0.00 in
03:59 65.0 °F 59.4 °F 29.84 in North 1.0 mph 2.0 mph 82% 0.00 in
04:09 64.8 °F 59.5 °F 29.84 in North 1.0 mph 3.0 mph 83% 0.00 in
04:19 64.7 °F 59.5 °F 29.84 in North 1.0 mph 2.0 mph 83% 0.00 in
04:29 64.6 °F 59.3 °F 29.84 in NNW 1.0 mph 2.0 mph 83% 0.00 in
04:39 64.5 °F 59.6 °F 29.83 in NNW 1.0 mph 3.0 mph 84% 0.00 in
04:49 64.3 °F 59.4 °F 29.83 in NW 2.0 mph 3.0 mph 84% 0.00 in
04:59 64.1 °F 59.2 °F 29.83 in NW 1.0 mph 3.0 mph 84% 0.00 in
05:09 64.1 °F 59.2 °F 29.83 in NNW 1.0 mph 3.0 mph 84% 0.00 in
05:19 64.1 °F 59.5 °F 29.83 in NNW 1.0 mph 5.0 mph 85% 0.00 in
05:29 64.3 °F 60.0 °F 29.83 in NNE 2.0 mph 8.0 mph 86% 0.00 in
05:39 64.5 °F 60.6 °F 29.83 in NNE 1.0 mph 5.0 mph 87% 0.00 in
05:49 64.6 °F 61.0 °F 29.83 in North 2.0 mph 7.0 mph 88% 0.00 in
05:59 64.6 °F 61.3 °F 29.82 in NNW 2.0 mph 7.0 mph 89% 0.00 in
06:09 64.5 °F 61.2 °F 29.83 in NNE 2.0 mph 8.0 mph 89% 0.00 in
06:19 64.7 °F 61.1 °F 29.84 in NNE 3.0 mph 5.0 mph 88% 0.00 in
06:29 64.9 °F 61.3 °F 29.84 in NE 1.0 mph 4.0 mph 88% 0.00 in
06:39 64.9 °F 61.3 °F 29.84 in Calm   4.0 mph 88% 0.00 in
06:49 64.9 °F 61.6 °F 29.84 in Calm   3.0 mph 89% 0.00 in
06:59 64.9 °F 61.6 °F 29.85 in Calm   2.0 mph 89% 0.00 in
07:09 64.9 °F 61.9 °F 29.85 in NNE 1.0 mph 1.0 mph 90% 0.00 in
07:19 64.9 °F 61.9 °F 29.85 in Calm   1.0 mph 90% 0.00 in
07:29 64.9 °F 61.9 °F 29.85 in Calm     90% 0.00 in
07:39 64.9 °F 61.9 °F 29.85 in NNE 1.0 mph 2.0 mph 90% 0.00 in
07:49 65.1 °F 62.1 °F 29.85 in Calm   2.0 mph 90% 0.00 in
07:59 65.3 °F 62.3 °F 29.85 in Calm   1.0 mph 90% 0.00 in
08:09 65.6 °F 62.3 °F 29.84 in NW 1.0 mph 3.0 mph 89% 0.00 in
08:19 65.8 °F 62.5 °F 29.85 in NW 1.0 mph 2.0 mph 89% 0.00 in
08:29 65.9 °F 62.6 °F 29.85 in Calm   2.0 mph 89% 0.00 in
08:39 66.1 °F 62.8 °F 29.85 in Calm   1.0 mph 89% 0.00 in
08:49 66.2 °F 62.9 °F 29.85 in Calm   1.0 mph 89% 0.00 in
08:59 66.5 °F 63.2 °F 29.85 in Calm   1.0 mph 89% 0.00 in
09:09 67.0 °F 63.6 °F 29.85 in Calm   1.0 mph 89% 0.00 in
09:19 67.4 °F 63.7 °F 29.85 in Calm   1.0 mph 88% 0.00 in
09:29 67.8 °F 63.8 °F 29.85 in NW 1.0 mph 2.0 mph 87% 0.00 in
09:39 68.1 °F 64.1 °F 29.85 in NW 1.0 mph 2.0 mph 87% 0.00 in
09:49 68.2 °F 63.5 °F 29.85 in NW 1.0 mph 3.0 mph 85% 0.00 in
09:59 68.3 °F 63.9 °F 29.84 in NW 1.0 mph 2.0 mph 86% 0.00 in
10:09 68.7 °F 64.3 °F 29.85 in Calm   2.0 mph 86% 0.00 in
10:19 68.9 °F 64.2 °F 29.84 in NNW 1.0 mph 2.0 mph 85% 0.00 in
10:29 68.9 °F 64.2 °F 29.85 in North 1.0 mph 2.0 mph 85% 0.00 in
10:39 68.9 °F 64.5 °F 29.85 in North 1.0 mph 3.0 mph 86% 0.00 in
10:49 69.0 °F 64.6 °F 29.84 in North 1.0 mph 3.0 mph 86% 0.00 in
10:59 69.1 °F 64.4 °F 29.83 in NW 1.0 mph 2.0 mph 85% 0.00 in
11:09 69.3 °F 64.9 °F 29.82 in NNE 1.0 mph 4.0 mph 86% 0.00 in
11:19 69.4 °F 65.0 °F 29.82 in North 1.0 mph 3.0 mph 86% 0.00 in
jolietwx - Weather
Compliments of Weather Underground